Time;durP1;ratioP1;P1;durP2;ratioP2;P2;SDS_P1;SDS_P2;PMS_P1;PMS_P2;Temp;Humidity;BMP_temperature;BMP_pressure;BME280_temperature;BME280_humidity;BME280_pressure;Samples;Min_cycle;Max_cycle;Signal;HPM_P1;HPM_P2
2023/01/04 00:00:34;;;;;;;7.95;3.38;;;;;;;;;;5038910;28;20056;-80
2023/01/04 00:03:01;;;;;;;11.23;3.03;;;;;;;;;;5038440;28;20028;-80
2023/01/04 00:05:27;;;;;;;7.45;3.38;;;;;;;;;;5039412;28;20066;-80
2023/01/04 00:07:53;;;;;;;7.28;3.00;;;;;;;;;;5038099;28;20472;-80
2023/01/04 00:10:19;;;;;;;7.03;2.90;;;;;;;;;;5038450;28;20079;-80
2023/01/04 00:12:45;;;;;;;9.90;3.50;;;;;;;;;;5038034;28;20416;-80
2023/01/04 00:15:11;;;;;;;5.55;3.05;;;;;;;;;;5038968;28;20034;-80
2023/01/04 00:17:37;;;;;;;5.40;2.95;;;;;;;;;;5038075;28;20461;-80
2023/01/04 00:20:03;;;;;;;6.43;3.08;;;;;;;;;;5038353;28;20033;-80
2023/01/04 00:22:32;;;;;;;8.18;3.45;;;;;;;;;;5038384;28;20028;-80
2023/01/04 00:24:58;;;;;;;6.93;3.00;;;;;;;;;;5037969;28;20030;-80
2023/01/04 00:27:24;;;;;;;5.15;3.25;;;;;;;;;;5037248;28;20039;-80
2023/01/04 00:29:50;;;;;;;3.90;2.60;;;;;;;;;;5026390;28;20034;-80
2023/01/04 00:32:16;;;;;;;6.03;3.20;;;;;;;;;;5030770;28;20030;-80
2023/01/04 00:34:42;;;;;;;6.57;2.90;;;;;;;;;;5036686;28;20040;-80
2023/01/04 00:37:08;;;;;;;11.82;4.15;;;;;;;;;;5036282;28;20431;-80
2023/01/04 00:39:34;;;;;;;6.18;3.00;;;;;;;;;;5027990;28;20034;-80
2023/01/04 00:42:04;;;;;;;4.00;2.63;;;;;;;;;;5028241;28;20025;-80
2023/01/04 00:44:31;;;;;;;7.70;2.83;;;;;;;;;;5036544;28;20040;-80
2023/01/04 00:46:57;;;;;;;8.38;3.10;;;;;;;;;;5035822;28;20106;-80
2023/01/04 00:49:23;;;;;;;3.15;2.50;;;;;;;;;;5038681;28;20443;-80
2023/01/04 00:51:50;;;;;;;6.80;3.25;;;;;;;;;;5040253;28;20109;-80
2023/01/04 00:54:16;;;;;;;5.97;2.70;;;;;;;;;;5039264;28;20388;-80
2023/01/04 00:56:42;;;;;;;4.10;2.60;;;;;;;;;;5039579;28;20104;-80
2023/01/04 00:59:10;;;;;;;5.72;3.13;;;;;;;;;;5039522;28;20025;-80
2023/01/04 01:01:36;;;;;;;4.32;2.88;;;;;;;;;;5040190;28;20050;-80
2023/01/04 01:04:03;;;;;;;3.92;2.60;;;;;;;;;;5039581;28;20392;-80
2023/01/04 01:06:30;;;;;;;6.43;2.50;;;;;;;;;;5040085;28;20021;-80
2023/01/04 01:08:56;;;;;;;5.75;2.75;;;;;;;;;;5039170;28;20101;-80
2023/01/04 01:11:22;;;;;;;5.28;2.70;;;;;;;;;;5045104;28;20036;-80
2023/01/04 01:13:49;;;;;;;3.15;2.33;;;;;;;;;;5049408;28;20173;-80
2023/01/04 01:16:16;;;;;;;6.05;2.90;;;;;;;;;;5027061;28;20022;-81
2023/01/04 01:18:43;;;;;;;4.40;2.53;;;;;;;;;;5033501;28;20049;-81
2023/01/04 01:21:14;;;;;;;5.20;2.42;;;;;;;;;;5044980;28;20030;-81
2023/01/04 01:23:40;;;;;;;5.88;2.50;;;;;;;;;;5044864;28;20033;-80
2023/01/04 01:26:07;;;;;;;3.28;2.20;;;;;;;;;;5026280;28;20021;-80
2023/01/04 01:28:34;;;;;;;2.92;2.38;;;;;;;;;;5043180;28;20025;-81
2023/01/04 01:31:04;;;;;;;5.95;2.45;;;;;;;;;;5034938;28;20369;-81
2023/01/04 01:33:30;;;;;;;3.13;1.80;;;;;;;;;;5035634;28;20036;-81
2023/01/04 01:36:00;;;;;;;3.55;2.00;;;;;;;;;;5042052;28;20025;-81
2023/01/04 01:38:26;;;;;;;3.22;1.63;;;;;;;;;;5042095;28;20460;-80
2023/01/04 01:40:52;;;;;;;5.68;2.00;;;;;;;;;;5040730;28;20025;-81
2023/01/04 01:43:19;;;;;;;7.95;1.90;;;;;;;;;;5041522;28;20452;-81
2023/01/04 01:45:47;;;;;;;1.77;1.17;;;;;;;;;;5040907;28;20380;-81
2023/01/04 01:48:26;;;;;;;4.07;1.67;;;;;;;;;;5040248;28;20108;-81
2023/01/04 01:50:54;;;;;;;1.85;1.30;;;;;;;;;;5040439;28;20049;-80
2023/01/04 01:53:21;;;;;;;1.92;1.40;;;;;;;;;;5039645;28;20036;-81
2023/01/04 01:55:48;;;;;;;2.03;1.40;;;;;;;;;;5039437;28;20025;-80
2023/01/04 01:58:18;;;;;;;1.92;1.48;;;;;;;;;;5038456;28;20036;-81
2023/01/04 02:00:43;;;;;;;3.17;1.30;;;;;;;;;;5037258;28;20087;-80
2023/01/04 02:03:17;;;;;;;3.85;1.70;;;;;;;;;;5038003;28;20025;-80
2023/01/04 02:05:44;;;;;;;2.85;1.30;;;;;;;;;;5038005;28;20079;-81
2023/01/04 02:08:11;;;;;;;1.70;1.20;;;;;;;;;;5037903;28;20033;-81
2023/01/04 02:10:37;;;;;;;2.58;1.00;;;;;;;;;;5036914;28;20033;-80
2023/01/04 02:13:06;;;;;;;2.28;1.27;;;;;;;;;;5037495;28;20029;-80
2023/01/04 02:15:40;;;;;;;2.50;1.42;;;;;;;;;;5036610;28;20053;-80
2023/01/04 02:18:10;;;;;;;2.45;1.30;;;;;;;;;;5015763;28;20038;-81
2023/01/04 02:20:56;;;;;;;2.53;1.25;;;;;;;;;;5018038;28;20433;-81
2023/01/04 02:23:51;;;;;;;1.90;1.30;;;;;;;;;;5007190;28;20037;-81
2023/01/04 02:26:17;;;;;;;2.85;1.50;;;;;;;;;;5017767;28;20119;-81
2023/01/04 02:28:46;;;;;;;3.35;1.40;;;;;;;;;;5015847;28;20054;-81
2023/01/04 02:31:30;;;;;;;3.58;0.85;;;;;;;;;;5016612;28;20069;-80
2023/01/04 02:34:05;;;;;;;1.88;1.13;;;;;;;;;;5016731;28;20030;-81
2023/01/04 02:36:56;;;;;;;1.92;0.90;;;;;;;;;;5016569;28;20643;-81
2023/01/04 02:39:22;;;;;;;3.97;1.02;;;;;;;;;;5024802;28;20088;-81
2023/01/04 02:42:07;;;;;;;1.67;1.20;;;;;;;;;;5025989;28;20116;-81
2023/01/04 02:44:56;;;;;;;1.95;1.30;;;;;;;;;;5039725;28;20596;-81
2023/01/04 02:50:31;;;;;;;1.75;1.33;;;;;;;;;;5042386;28;20045;-81
2023/01/04 02:53:12;;;;;;;1.52;1.42;;;;;;;;;;5041615;28;20040;-81
2023/01/04 02:55:38;;;;;;;1.67;1.45;;;;;;;;;;5040978;28;20026;-81
2023/01/04 02:58:13;;;;;;;1.70;1.52;;;;;;;;;;5040624;28;20025;-81
2023/01/04 03:06:59;;;;;;;2.75;1.95;;;;;;;;;;5038797;28;20510;-80
2023/01/04 03:09:27;;;;;;;1.92;1.73;;;;;;;;;;5038658;28;20040;-81
2023/01/04 03:15:05;;;;;;;2.80;2.53;;;;;;;;;;5018903;28;20100;-81
2023/01/04 03:17:39;;;;;;;5.57;2.40;;;;;;;;;;5011244;28;20034;-81
2023/01/04 03:20:06;;;;;;;10.95;2.70;;;;;;;;;;5020180;28;20045;-81
2023/01/04 03:36:37;;;;;;;11.88;2.47;;;;;;;;;;5030051;28;20087;-80
2023/01/04 03:48:29;;;;;;;7.28;2.13;;;;;;;;;;5036043;28;20510;-80
2023/01/04 03:51:14;;;;;;;6.80;2.60;;;;;;;;;;5035204;28;20476;-81
2023/01/04 03:53:45;;;;;;;7.80;2.00;;;;;;;;;;5034910;28;20036;-80
2023/01/04 03:56:12;;;;;;;9.05;2.25;;;;;;;;;;5035571;28;20064;-81
2023/01/04 03:58:38;;;;;;;9.98;2.35;;;;;;;;;;5035086;28;20072;-80
2023/01/04 04:01:05;;;;;;;13.80;2.72;;;;;;;;;;5034496;28;20045;-80
2023/01/04 04:09:01;;;;;;;23.80;2.88;;;;;;;;;;5035885;28;20040;-81
2023/01/04 04:11:30;;;;;;;10.55;3.13;;;;;;;;;;5034700;28;20029;-81
2023/01/04 04:14:04;;;;;;;11.95;2.10;;;;;;;;;;5034681;28;20040;-81
2023/01/04 04:16:30;;;;;;;7.65;2.47;;;;;;;;;;5034353;28;20480;-81
2023/01/04 04:18:56;;;;;;;10.88;2.97;;;;;;;;;;5034747;28;20032;-81
2023/01/04 04:21:22;;;;;;;9.02;2.40;;;;;;;;;;5034500;28;20453;-81
2023/01/04 04:23:48;;;;;;;10.23;2.65;;;;;;;;;;5018858;28;20456;-80
2023/01/04 04:26:14;;;;;;;11.05;2.60;;;;;;;;;;5020931;28;20112;-80
2023/01/04 04:28:40;;;;;;;10.80;2.40;;;;;;;;;;5038824;28;20018;-81
2023/01/04 04:31:12;;;;;;;8.80;2.88;;;;;;;;;;5038862;28;20494;-81
2023/01/04 04:33:37;;;;;;;12.23;2.97;;;;;;;;;;5038952;28;20087;-81
2023/01/04 04:36:04;;;;;;;6.07;2.35;;;;;;;;;;5040681;28;20420;-81
2023/01/04 04:38:30;;;;;;;8.20;2.30;;;;;;;;;;5024974;28;20158;-81
2023/01/04 04:43:41;;;;;;;6.35;1.67;;;;;;;;;;5043660;28;20037;-82
2023/01/04 04:46:07;;;;;;;4.88;1.65;;;;;;;;;;5043817;28;20026;-81
2023/01/04 04:48:33;;;;;;;9.20;2.13;;;;;;;;;;5042114;28;20034;-82
2023/01/04 04:50:59;;;;;;;4.53;1.88;;;;;;;;;;5021947;28;20040;-81
2023/01/04 04:53:25;;;;;;;7.32;2.00;;;;;;;;;;5021472;28;20054;-81
2023/01/04 04:55:52;;;;;;;4.47;1.85;;;;;;;;;;5022880;28;20432;-81
2023/01/04 04:58:18;;;;;;;6.88;1.80;;;;;;;;;;5023369;28;20029;-81
2023/01/04 05:00:44;;;;;;;4.28;1.50;;;;;;;;;;5041252;28;20048;-81
2023/01/04 05:03:10;;;;;;;6.53;2.13;;;;;;;;;;5020937;28;20030;-82
2023/01/04 05:05:37;;;;;;;12.88;3.25;;;;;;;;;;5035883;28;20049;-82
2023/01/04 05:08:03;;;;;;;10.50;2.45;;;;;;;;;;5040787;28;20083;-81
2023/01/04 05:10:29;;;;;;;8.85;1.85;;;;;;;;;;5040891;28;20038;-82
2023/01/04 05:12:58;;;;;;;6.65;1.73;;;;;;;;;;5038548;28;20105;-81
2023/01/04 05:15:28;;;;;;;9.10;1.90;;;;;;;;;;5021032;28;20113;-81
2023/01/04 05:17:54;;;;;;;5.40;1.88;;;;;;;;;;5010440;28;20030;-81
2023/01/04 05:20:20;;;;;;;4.03;1.50;;;;;;;;;;5038693;28;20049;-81
2023/01/04 05:22:46;;;;;;;6.05;2.00;;;;;;;;;;5034037;28;20041;-82
2023/01/04 05:25:12;;;;;;;4.13;1.92;;;;;;;;;;5038809;28;20431;-81
2023/01/04 05:27:40;;;;;;;3.80;1.63;;;;;;;;;;5038819;28;20045;-82
2023/01/04 05:32:51;;;;;;;4.50;1.73;;;;;;;;;;5037997;28;20072;-81
2023/01/04 05:35:17;;;;;;;3.45;1.50;;;;;;;;;;5021202;28;20025;-82
2023/01/04 05:37:43;;;;;;;7.35;1.73;;;;;;;;;;5039316;28;20025;-82
2023/01/04 05:40:09;;;;;;;7.80;1.75;;;;;;;;;;5020253;28;20021;-81
2023/01/04 05:42:35;;;;;;;4.97;1.42;;;;;;;;;;5038826;28;20026;-82
2023/01/04 05:45:01;;;;;;;8.90;2.00;;;;;;;;;;5039142;28;20097;-82
2023/01/04 05:47:28;;;;;;;6.90;1.60;;;;;;;;;;5038283;28;20025;-81
2023/01/04 05:49:54;;;;;;;5.45;1.27;;;;;;;;;;5037836;28;20100;-81
2023/01/04 05:52:20;;;;;;;9.25;1.42;;;;;;;;;;5037200;28;20505;-81
2023/01/04 05:54:46;;;;;;;8.50;2.33;;;;;;;;;;5037374;28;20026;-81
2023/01/04 05:57:13;;;;;;;9.80;1.30;;;;;;;;;;5020454;28;20033;-81
2023/01/04 05:59:39;;;;;;;10.73;1.90;;;;;;;;;;5037569;28;20033;-81
2023/01/04 06:02:06;;;;;;;16.83;1.92;;;;;;;;;;5039064;28;20492;-81
2023/01/04 06:04:32;;;;;;;8.50;1.25;;;;;;;;;;5037925;28;20026;-82
2023/01/04 06:06:58;;;;;;;5.90;1.50;;;;;;;;;;5031058;28;20022;-81
2023/01/04 06:09:25;;;;;;;11.00;1.75;;;;;;;;;;5035677;28;20400;-81
2023/01/04 06:11:51;;;;;;;8.20;1.73;;;;;;;;;;5020730;28;20033;-82
2023/01/04 06:14:17;;;;;;;8.50;1.77;;;;;;;;;;5037000;28;20044;-81
2023/01/04 06:16:43;;;;;;;8.25;2.08;;;;;;;;;;5018382;28;20037;-82
2023/01/04 06:19:09;;;;;;;10.18;1.42;;;;;;;;;;5024682;28;20026;-82
2023/01/04 06:21:35;;;;;;;6.28;1.35;;;;;;;;;;5037154;28;20191;-81
2023/01/04 06:24:01;;;;;;;10.32;1.38;;;;;;;;;;5019189;28;20091;-81
2023/01/04 06:26:27;;;;;;;9.40;1.38;;;;;;;;;;5036360;28;20435;-81
2023/01/04 06:28:53;;;;;;;10.02;1.60;;;;;;;;;;5039814;28;20101;-81
2023/01/04 06:31:19;;;;;;;6.55;1.17;;;;;;;;;;5038223;28;20026;-82
2023/01/04 06:33:45;;;;;;;12.25;1.65;;;;;;;;;;5020265;28;20091;-81
2023/01/04 06:36:11;;;;;;;12.27;1.80;;;;;;;;;;5038209;28;20465;-81
2023/01/04 06:38:37;;;;;;;10.40;1.80;;;;;;;;;;5037994;28;20175;-81
2023/01/04 06:41:03;;;;;;;17.55;2.22;;;;;;;;;;5016879;28;20556;-81
2023/01/04 06:43:29;;;;;;;14.60;1.80;;;;;;;;;;5018457;28;20018;-81
2023/01/04 06:45:55;;;;;;;16.90;2.25;;;;;;;;;;5029947;28;20487;-81
2023/01/04 06:48:21;;;;;;;16.77;2.15;;;;;;;;;;5037871;28;20032;-81
2023/01/04 06:50:47;;;;;;;10.25;1.60;;;;;;;;;;5036968;28;20037;-81
2023/01/04 06:53:13;;;;;;;16.15;2.22;;;;;;;;;;5038763;28;20032;-81
2023/01/04 06:55:39;;;;;;;14.65;2.22;;;;;;;;;;5036645;28;20789;-81
2023/01/04 06:58:05;;;;;;;11.90;1.80;;;;;;;;;;5037980;28;20052;-81
2023/01/04 07:00:31;;;;;;;15.30;2.65;;;;;;;;;;5036177;28;20045;-81
2023/01/04 07:03:02;;;;;;;13.07;1.92;;;;;;;;;;5036469;28;20021;-81
2023/01/04 07:05:29;;;;;;;13.25;2.17;;;;;;;;;;5035883;28;20471;-81
2023/01/04 07:07:54;;;;;;;18.45;2.67;;;;;;;;;;5035846;28;20071;-81
2023/01/04 07:10:20;;;;;;;13.52;2.50;;;;;;;;;;5035846;28;20053;-82
2023/01/04 07:12:46;;;;;;;17.40;2.78;;;;;;;;;;5000259;28;20097;-82
2023/01/04 07:15:12;;;;;;;16.73;2.67;;;;;;;;;;5015776;28;20034;-81
2023/01/04 07:17:38;;;;;;;17.05;2.30;;;;;;;;;;5015801;28;20029;-81
2023/01/04 07:20:05;;;;;;;17.83;2.40;;;;;;;;;;5019079;28;20022;-80
2023/01/04 07:22:31;;;;;;;17.98;2.20;;;;;;;;;;5035153;28;20041;-81
2023/01/04 07:24:57;;;;;;;12.02;2.83;;;;;;;;;;5035013;28;20075;-82
2023/01/04 07:27:23;;;;;;;11.75;1.67;;;;;;;;;;5034697;28;20468;-81
2023/01/04 07:29:49;;;;;;;16.63;2.78;;;;;;;;;;5035220;28;20029;-82
2023/01/04 07:32:15;;;;;;;18.05;2.85;;;;;;;;;;5035245;28;20036;-82
2023/01/04 07:34:42;;;;;;;14.88;2.20;;;;;;;;;;5035027;28;20136;-82
2023/01/04 07:37:08;;;;;;;16.77;2.65;;;;;;;;;;5016581;28;20021;-82
2023/01/04 07:39:35;;;;;;;19.73;3.75;;;;;;;;;;5035283;28;20017;-82
2023/01/04 07:42:19;;;;;;;15.52;2.63;;;;;;;;;;5034709;28;20120;-82
2023/01/04 07:44:45;;;;;;;13.85;2.22;;;;;;;;;;5017041;28;20503;-81
2023/01/04 07:47:11;;;;;;;11.10;2.33;;;;;;;;;;5035585;28;20029;-82
2023/01/04 07:49:37;;;;;;;10.90;1.88;;;;;;;;;;5034816;28;20026;-81
2023/01/04 07:52:03;;;;;;;11.25;2.25;;;;;;;;;;5034502;28;20025;-82
2023/01/04 07:54:29;;;;;;;11.38;2.17;;;;;;;;;;5034797;28;20029;-82
2023/01/04 07:56:55;;;;;;;7.65;1.73;;;;;;;;;;5035102;28;20043;-82
2023/01/04 07:59:21;;;;;;;13.60;2.00;;;;;;;;;;5027033;28;20033;-82
2023/01/04 08:01:49;;;;;;;14.27;2.13;;;;;;;;;;5034941;28;20059;-82
2023/01/04 08:04:15;;;;;;;16.83;1.80;;;;;;;;;;5031627;28;20025;-82
2023/01/04 08:06:43;;;;;;;13.45;2.35;;;;;;;;;;4997440;28;20030;-80
2023/01/04 08:09:10;;;;;;;13.65;2.20;;;;;;;;;;5033560;28;20033;-80
2023/01/04 08:11:36;;;;;;;15.45;2.17;;;;;;;;;;5035096;28;20029;-80
2023/01/04 08:14:02;;;;;;;16.55;2.20;;;;;;;;;;5034514;28;20061;-79
2023/01/04 08:16:33;;;;;;;15.40;2.20;;;;;;;;;;5034501;28;20477;-80
2023/01/04 08:19:03;;;;;;;15.50;2.42;;;;;;;;;;5035727;28;20519;-80
2023/01/04 08:21:30;;;;;;;10.77;1.60;;;;;;;;;;5050307;28;20025;-80
2023/01/04 08:23:56;;;;;;;22.25;2.58;;;;;;;;;;5047804;28;20018;-79
2023/01/04 08:26:23;;;;;;;12.60;1.83;;;;;;;;;;5029101;28;20029;-80
2023/01/04 08:28:50;;;;;;;10.23;2.25;;;;;;;;;;5031393;28;20376;-80
2023/01/04 08:31:17;;;;;;;13.00;1.90;;;;;;;;;;5026607;28;20026;-80
2023/01/04 08:33:44;;;;;;;12.05;1.90;;;;;;;;;;5045144;28;20026;-80
2023/01/04 08:36:13;;;;;;;9.63;1.73;;;;;;;;;;5036755;28;20022;-80
2023/01/04 08:38:39;;;;;;;17.60;2.13;;;;;;;;;;5042803;28;20369;-80
2023/01/04 08:41:05;;;;;;;18.50;2.03;;;;;;;;;;5042483;28;20036;-80
2023/01/04 08:43:31;;;;;;;17.20;2.05;;;;;;;;;;5026563;28;20030;-80
2023/01/04 08:45:57;;;;;;;16.65;2.47;;;;;;;;;;5035933;28;20045;-80
2023/01/04 08:48:24;;;;;;;16.23;2.15;;;;;;;;;;5024310;28;20022;-80
2023/01/04 08:50:50;;;;;;;23.48;3.05;;;;;;;;;;5041916;28;20040;-80
2023/01/04 08:53:16;;;;;;;21.63;2.60;;;;;;;;;;5034653;28;20057;-80
2023/01/04 08:55:48;;;;;;;16.08;2.25;;;;;;;;;;5040767;28;20384;-80
2023/01/04 08:58:14;;;;;;;13.35;2.88;;;;;;;;;;5027112;28;20029;-80
2023/01/04 09:00:40;;;;;;;21.50;2.53;;;;;;;;;;5035117;28;20118;-80
2023/01/04 09:03:06;;;;;;;17.00;2.63;;;;;;;;;;5019696;28;20456;-80
2023/01/04 09:05:32;;;;;;;20.48;2.88;;;;;;;;;;5040997;28;20025;-80
2023/01/04 09:08:01;;;;;;;23.73;3.50;;;;;;;;;;5044445;28;20029;-82
2023/01/04 09:10:27;;;;;;;20.20;2.42;;;;;;;;;;5040015;28;20029;-81
2023/01/04 09:12:53;;;;;;;18.75;2.88;;;;;;;;;;5043127;28;20093;-81
2023/01/04 09:15:26;;;;;;;19.13;3.15;;;;;;;;;;5040828;28;20022;-81
2023/01/04 09:17:52;;;;;;;17.30;2.65;;;;;;;;;;5027730;28;20558;-81
2023/01/04 09:20:18;;;;;;;14.77;2.65;;;;;;;;;;5028593;28;20022;-82
2023/01/04 09:22:44;;;;;;;20.65;3.05;;;;;;;;;;5041605;28;20534;-81
2023/01/04 09:25:10;;;;;;;22.95;2.60;;;;;;;;;;5019813;28;20030;-81
2023/01/04 09:27:38;;;;;;;18.55;2.80;;;;;;;;;;5006540;28;20429;-81
2023/01/04 09:30:04;;;;;;;21.60;2.85;;;;;;;;;;5030338;28;20050;-81
2023/01/04 09:32:30;;;;;;;23.40;3.65;;;;;;;;;;5030866;28;20034;-81
2023/01/04 09:34:56;;;;;;;31.50;5.78;;;;;;;;;;5020531;28;20032;-81
2023/01/04 09:37:22;;;;;;;17.55;2.55;;;;;;;;;;5036487;28;20027;-81
2023/01/04 09:39:48;;;;;;;14.43;2.63;;;;;;;;;;5039580;28;20537;-81
2023/01/04 09:42:24;;;;;;;15.90;3.45;;;;;;;;;;5036719;28;20082;-81
2023/01/04 09:44:52;;;;;;;22.30;3.90;;;;;;;;;;5039183;28;20112;-81
2023/01/04 09:47:50;;;;;;;23.02;3.80;;;;;;;;;;5041940;28;20030;-80
2023/01/04 09:50:20;;;;;;;20.45;3.00;;;;;;;;;;4989680;28;20060;-81
2023/01/04 09:52:46;;;;;;;21.10;3.30;;;;;;;;;;5036769;28;20477;-81
2023/01/04 09:55:17;;;;;;;18.25;2.95;;;;;;;;;;5020346;28;20030;-81
2023/01/04 09:57:47;;;;;;;23.75;3.25;;;;;;;;;;5034463;28;20105;-81
2023/01/04 10:00:19;;;;;;;16.10;2.83;;;;;;;;;;5038747;28;20034;-81
2023/01/04 10:02:51;;;;;;;21.63;3.60;;;;;;;;;;5032739;28;20026;-81
2023/01/04 10:05:22;;;;;;;22.60;2.83;;;;;;;;;;5020180;28;20081;-80
2023/01/04 10:07:48;;;;;;;22.77;3.47;;;;;;;;;;5030176;28;20030;-81
2023/01/04 10:10:16;;;;;;;12.68;2.92;;;;;;;;;;5032972;28;20029;-80
2023/01/04 10:12:45;;;;;;;20.20;3.08;;;;;;;;;;5034754;28;20112;-80
2023/01/04 10:15:33;;;;;;;20.17;4.05;;;;;;;;;;5029945;28;20030;-81
2023/01/04 10:18:08;;;;;;;19.92;3.58;;;;;;;;;;5025468;28;20061;-81
2023/01/04 10:20:53;;;;;;;13.75;2.38;;;;;;;;;;5026190;28;20049;-80
2023/01/04 10:23:19;;;;;;;18.20;3.05;;;;;;;;;;5035157;28;20038;-80
2023/01/04 10:25:53;;;;;;;25.83;4.47;;;;;;;;;;5035458;28;20140;-80
2023/01/04 10:28:25;;;;;;;29.25;4.03;;;;;;;;;;5036020;28;20084;-81
2023/01/04 10:31:00;;;;;;;23.20;4.07;;;;;;;;;;5042120;28;20455;-80
2023/01/04 10:33:26;;;;;;;27.00;4.13;;;;;;;;;;5040431;28;20040;-80
2023/01/04 10:35:52;;;;;;;23.23;3.78;;;;;;;;;;5033238;28;20029;-80
2023/01/04 10:38:27;;;;;;;19.05;3.50;;;;;;;;;;5023845;28;20444;-80
2023/01/04 10:40:53;;;;;;;16.52;3.08;;;;;;;;;;5031518;28;20040;-80
2023/01/04 10:43:28;;;;;;;17.13;2.80;;;;;;;;;;5022225;28;20013;-80
2023/01/04 10:46:04;;;;;;;13.27;2.28;;;;;;;;;;5040197;28;20053;-80
2023/01/04 10:48:51;;;;;;;19.52;3.00;;;;;;;;;;5002853;28;20036;-81
2023/01/04 10:51:21;;;;;;;17.88;3.03;;;;;;;;;;5024727;28;20029;-80
2023/01/04 10:53:56;;;;;;;26.80;4.18;;;;;;;;;;5034688;28;20065;-81
2023/01/04 10:56:30;;;;;;;17.17;3.65;;;;;;;;;;5020781;28;20091;-80
2023/01/04 10:59:10;;;;;;;24.77;3.72;;;;;;;;;;5040628;28;20025;-82
2023/01/04 11:01:49;;;;;;;24.85;4.05;;;;;;;;;;5044533;28;20060;-82
2023/01/04 11:04:15;;;;;;;29.02;3.95;;;;;;;;;;5036742;28;20029;-82
2023/01/04 11:06:44;;;;;;;30.55;4.00;;;;;;;;;;5026653;28;20597;-83
2023/01/04 11:09:25;;;;;;;21.42;4.05;;;;;;;;;;5010144;28;20052;-84
2023/01/04 11:11:53;;;;;;;15.00;3.47;;;;;;;;;;5016668;28;20033;-81
2023/01/04 11:14:19;;;;;;;17.55;3.13;;;;;;;;;;5034466;28;20037;-81
2023/01/04 11:16:47;;;;;;;19.13;3.28;;;;;;;;;;5035115;28;20026;-81
2023/01/04 11:19:13;;;;;;;16.23;2.55;;;;;;;;;;5016880;28;20029;-81
2023/01/04 11:21:46;;;;;;;11.68;2.35;;;;;;;;;;5023374;28;20033;-81
2023/01/04 11:24:13;;;;;;;22.38;2.83;;;;;;;;;;5034934;28;20040;-80
2023/01/04 11:26:42;;;;;;;14.40;2.45;;;;;;;;;;5017673;28;20061;-81
2023/01/04 11:29:27;;;;;;;18.73;2.92;;;;;;;;;;5021079;28;20028;-81
2023/01/04 11:31:56;;;;;;;14.13;2.80;;;;;;;;;;5017109;28;20503;-81
2023/01/04 11:34:41;;;;;;;21.42;2.65;;;;;;;;;;5027872;28;20110;-81
2023/01/04 11:37:22;;;;;;;18.23;2.63;;;;;;;;;;5015923;28;20032;-81
2023/01/04 11:39:48;;;;;;;20.55;3.05;;;;;;;;;;5034726;28;20017;-81
2023/01/04 11:42:20;;;;;;;15.88;2.50;;;;;;;;;;5016518;28;20052;-81
2023/01/04 11:44:57;;;;;;;17.08;2.72;;;;;;;;;;5033758;28;20032;-81
2023/01/04 11:47:24;;;;;;;20.40;3.55;;;;;;;;;;5034307;28;20029;-81
2023/01/04 11:49:50;;;;;;;16.90;3.17;;;;;;;;;;5033858;28;20112;-80
2023/01/04 11:52:28;;;;;;;13.35;2.03;;;;;;;;;;5034174;28;20033;-81
2023/01/04 11:54:54;;;;;;;16.95;2.67;;;;;;;;;;5016121;28;20088;-80
2023/01/04 11:57:20;;;;;;;14.73;2.17;;;;;;;;;;5028528;28;20404;-80
2023/01/04 12:00:05;;;;;;;16.75;1.95;;;;;;;;;;5033929;28;20083;-80
2023/01/04 12:02:31;;;;;;;10.82;2.45;;;;;;;;;;5035242;28;20045;-81
2023/01/04 12:04:57;;;;;;;12.95;2.05;;;;;;;;;;5051182;28;20021;-80
2023/01/04 12:07:33;;;;;;;14.70;2.42;;;;;;;;;;5037553;28;20338;-80
2023/01/04 12:10:00;;;;;;;12.57;2.22;;;;;;;;;;5032644;28;20108;-80
2023/01/04 12:12:30;;;;;;;14.32;2.28;;;;;;;;;;5010674;28;20034;-80
2023/01/04 12:15:00;;;;;;;14.73;2.13;;;;;;;;;;5014349;28;20456;-80
2023/01/04 12:17:30;;;;;;;14.43;2.20;;;;;;;;;;5025906;28;20449;-79
2023/01/04 12:19:56;;;;;;;10.80;2.20;;;;;;;;;;5019827;28;20644;-81
2023/01/04 12:22:25;;;;;;;11.75;1.83;;;;;;;;;;5030514;28;20029;-81
2023/01/04 12:24:53;;;;;;;11.48;1.67;;;;;;;;;;5013754;28;20050;-79
2023/01/04 12:27:19;;;;;;;12.00;2.22;;;;;;;;;;5004989;28;20269;-81
2023/01/04 12:29:53;;;;;;;13.65;2.00;;;;;;;;;;5033800;28;20463;-80
2023/01/04 12:32:19;;;;;;;10.48;2.05;;;;;;;;;;5034255;28;20395;-80
2023/01/04 12:34:46;;;;;;;9.43;2.00;;;;;;;;;;5036463;28;20033;-80
2023/01/04 12:37:31;;;;;;;14.50;3.08;;;;;;;;;;5013888;28;20506;-81
2023/01/04 12:39:57;;;;;;;12.43;1.83;;;;;;;;;;5015775;28;20030;-80
2023/01/04 12:42:32;;;;;;;15.23;2.90;;;;;;;;;;5033686;28;20172;-81
2023/01/04 12:44:59;;;;;;;11.13;1.77;;;;;;;;;;5035644;28;20029;-81
2023/01/04 12:50:13;;;;;;;14.25;2.70;;;;;;;;;;5033969;28;20392;-80
2023/01/04 12:52:43;;;;;;;12.23;2.08;;;;;;;;;;5032212;28;20075;-80
2023/01/04 12:55:18;;;;;;;14.90;2.55;;;;;;;;;;5019422;28;20040;-81
2023/01/04 12:57:45;;;;;;;20.50;3.65;;;;;;;;;;5037529;28;20029;-82
2023/01/04 13:00:12;;;;;;;14.10;2.45;;;;;;;;;;5037078;28;20026;-81
2023/01/04 13:06:01;;;;;;;13.82;2.20;;;;;;;;;;5034706;28;20033;-80
2023/01/04 13:08:49;;;;;;;19.73;3.03;;;;;;;;;;5032750;28;20033;-80
2023/01/04 13:11:28;;;;;;;15.52;2.75;;;;;;;;;;5037895;28;20068;-81
2023/01/04 13:13:59;;;;;;;11.32;1.83;;;;;;;;;;5042254;28;20064;-80
2023/01/04 13:16:32;;;;;;;12.68;2.20;;;;;;;;;;5039802;28;20408;-80
2023/01/04 13:19:30;;;;;;;20.00;3.17;;;;;;;;;;5037945;28;20468;-79
2023/01/04 13:21:56;;;;;;;18.42;2.58;;;;;;;;;;5032736;28;20033;-79
2023/01/04 13:24:26;;;;;;;16.80;2.30;;;;;;;;;;5030916;28;20021;-80
2023/01/04 13:27:07;;;;;;;18.27;2.97;;;;;;;;;;5019151;28;20451;-81
2023/01/04 13:29:35;;;;;;;12.02;2.50;;;;;;;;;;5035023;28;20109;-81
2023/01/04 13:32:24;;;;;;;14.30;2.22;;;;;;;;;;5019162;28;20487;-81
2023/01/04 13:34:52;;;;;;;19.07;2.60;;;;;;;;;;5026751;28;20041;-81
2023/01/04 13:37:37;;;;;;;26.80;4.18;;;;;;;;;;5045240;28;20029;-81
2023/01/04 13:40:12;;;;;;;19.98;2.65;;;;;;;;;;4999140;28;20026;-81
2023/01/04 13:42:40;;;;;;;20.40;2.97;;;;;;;;;;5008191;28;20064;-80
2023/01/04 13:45:18;;;;;;;16.02;2.88;;;;;;;;;;5032856;28;20036;-80
2023/01/04 13:47:44;;;;;;;15.73;2.53;;;;;;;;;;5028260;28;20029;-80
2023/01/04 13:50:24;;;;;;;10.75;2.15;;;;;;;;;;5044751;28;20089;-80
2023/01/04 13:52:50;;;;;;;18.90;3.13;;;;;;;;;;5034263;28;20537;-80
2023/01/04 13:55:26;;;;;;;20.17;3.13;;;;;;;;;;5043242;28;20077;-80
2023/01/04 13:57:59;;;;;;;12.35;2.45;;;;;;;;;;5047650;28;20022;-81
2023/01/04 14:00:26;;;;;;;8.50;1.90;;;;;;;;;;5045040;28;20029;-80
2023/01/04 14:03:11;;;;;;;15.75;2.05;;;;;;;;;;5041362;28;20025;-80
2023/01/04 14:05:38;;;;;;;25.17;3.47;;;;;;;;;;5038783;28;20026;-80
2023/01/04 14:08:09;;;;;;;15.88;2.63;;;;;;;;;;5040177;28;20029;-80
2023/01/04 14:10:36;;;;;;;16.35;2.53;;;;;;;;;;5039670;28;20148;-80
2023/01/04 14:13:02;;;;;;;19.20;3.03;;;;;;;;;;5038852;28;20022;-80
2023/01/04 14:15:32;;;;;;;17.70;2.47;;;;;;;;;;5049688;28;20032;-80
2023/01/04 14:17:58;;;;;;;20.15;2.55;;;;;;;;;;5041963;28;20089;-80
2023/01/04 14:20:32;;;;;;;18.63;2.58;;;;;;;;;;5037035;28;20794;-81
2023/01/04 14:22:58;;;;;;;13.23;2.10;;;;;;;;;;5037789;28;20029;-81
2023/01/04 14:25:33;;;;;;;17.33;2.35;;;;;;;;;;5035132;28;20032;-81
2023/01/04 14:28:17;;;;;;;13.35;2.50;;;;;;;;;;5036000;28;20049;-81
2023/01/04 14:30:44;;;;;;;22.85;3.03;;;;;;;;;;5019016;28;20029;-81
2023/01/04 14:33:19;;;;;;;18.73;3.22;;;;;;;;;;5019219;28;20037;-81
2023/01/04 14:35:45;;;;;;;17.92;3.28;;;;;;;;;;5042648;28;20018;-81
2023/01/04 14:38:15;;;;;;;17.90;3.13;;;;;;;;;;5010000;28;20430;-81
2023/01/04 14:40:41;;;;;;;22.90;3.63;;;;;;;;;;5027423;28;20028;-81
2023/01/04 14:43:37;;;;;;;20.85;3.33;;;;;;;;;;5030043;28;20029;-81
2023/01/04 14:46:03;;;;;;;15.82;3.40;;;;;;;;;;5003149;28;20665;-81
2023/01/04 14:48:29;;;;;;;14.95;2.67;;;;;;;;;;5042613;28;21476;-80
2023/01/04 14:50:56;;;;;;;17.05;2.97;;;;;;;;;;5035743;28;20495;-80
2023/01/04 14:53:22;;;;;;;24.00;3.38;;;;;;;;;;5005406;28;20612;-80
2023/01/04 14:55:48;;;;;;;16.73;2.90;;;;;;;;;;5043201;28;20070;-81
2023/01/04 14:58:14;;;;;;;18.40;2.75;;;;;;;;;;5027908;28;20030;-81
2023/01/04 15:00:40;;;;;;;20.40;3.00;;;;;;;;;;5035473;28;20132;-81
2023/01/04 15:03:06;;;;;;;17.83;2.70;;;;;;;;;;5031562;28;20048;-81
2023/01/04 15:05:32;;;;;;;19.63;3.15;;;;;;;;;;5008663;28;20026;-81
2023/01/04 15:07:58;;;;;;;17.83;2.67;;;;;;;;;;5008380;28;20026;-81
2023/01/04 15:10:25;;;;;;;14.82;2.55;;;;;;;;;;5034737;28;20072;-81
2023/01/04 15:12:52;;;;;;;15.65;2.97;;;;;;;;;;5035529;28;20085;-81
2023/01/04 15:15:18;;;;;;;15.52;2.53;;;;;;;;;;5039452;28;20057;-81
2023/01/04 15:17:44;;;;;;;16.90;2.92;;;;;;;;;;5036208;28;20472;-81
2023/01/04 15:20:11;;;;;;;16.08;3.13;;;;;;;;;;5035059;28;20502;-81
2023/01/04 15:22:37;;;;;;;14.90;2.25;;;;;;;;;;5040904;28;20543;-80
2023/01/04 15:25:03;;;;;;;14.50;2.47;;;;;;;;;;5028004;28;20473;-80
2023/01/04 15:27:29;;;;;;;16.02;2.75;;;;;;;;;;5032354;28;20045;-80
2023/01/04 15:29:55;;;;;;;17.98;2.42;;;;;;;;;;5015625;28;20385;-81
2023/01/04 15:32:22;;;;;;;17.52;2.65;;;;;;;;;;5012639;28;20040;-80
2023/01/04 15:34:48;;;;;;;14.20;2.50;;;;;;;;;;5035027;28;20037;-81
2023/01/04 15:37:14;;;;;;;20.80;2.33;;;;;;;;;;5017813;28;20026;-81